Time;durP1;ratioP1;P1;durP2;ratioP2;P2;SDS_P1;SDS_P2;PMS_P1;PMS_P2;Temp;Humidity;BMP_temperature;BMP_pressure;BME280_temperature;BME280_humidity;BME280_pressure;Samples;Min_cycle;Max_cycle;Signal;HPM_P1;HPM_P2
2022/09/14 00:00:32;;;;;;;3.08;1.25;;;;;;;25.75;49.24;100491.53;4920638;29;20038;-70
2022/09/14 00:02:57;;;;;;;2.88;1.15;;;;;;;25.70;49.00;100483.19;4937632;29;20055;-70
2022/09/14 00:05:22;;;;;;;6.97;1.20;;;;;;;25.71;49.03;100495.81;4936426;29;20035;-69
2022/09/14 00:07:48;;;;;;;3.53;1.15;;;;;;;25.71;48.78;100490.34;4935899;29;20039;-69
2022/09/14 00:10:13;;;;;;;2.15;1.40;;;;;;;25.69;48.91;100484.25;4936213;29;20032;-69
2022/09/14 00:12:39;;;;;;;3.05;1.00;;;;;;;25.68;48.62;100477.13;4935952;29;20039;-69
2022/09/14 00:15:06;;;;;;;3.35;1.55;;;;;;;25.68;49.07;100476.28;4935778;29;20060;-70
2022/09/14 00:17:32;;;;;;;2.40;1.40;;;;;;;25.65;48.87;100466.59;4936379;29;20036;-69
2022/09/14 00:19:57;;;;;;;3.30;1.10;;;;;;;25.64;48.46;100462.19;4920230;29;20060;-69
2022/09/14 00:22:23;;;;;;;7.50;2.00;;;;;;;25.63;48.49;100463.25;4936070;29;20152;-69
2022/09/14 00:24:48;;;;;;;3.05;1.30;;;;;;;25.61;49.06;100470.03;4936909;29;20023;-69
2022/09/14 00:27:13;;;;;;;3.70;1.25;;;;;;;25.59;48.84;100484.00;4935764;29;20039;-69
2022/09/14 00:29:39;;;;;;;1.80;1.10;;;;;;;25.58;48.74;100482.31;4936909;29;20444;-69
2022/09/14 00:32:04;;;;;;;4.50;1.25;;;;;;;25.58;48.71;100479.59;4936902;29;20138;-68
2022/09/14 00:34:30;;;;;;;2.15;1.10;;;;;;;25.57;48.36;100468.84;4935632;29;20032;-69
2022/09/14 00:36:55;;;;;;;1.45;1.02;;;;;;;25.55;48.65;100466.34;4919768;29;20122;-69
2022/09/14 00:39:22;;;;;;;3.45;1.27;;;;;;;25.54;48.81;100459.19;4935582;29;20451;-69
2022/09/14 00:41:49;;;;;;;2.88;1.30;;;;;;;25.51;48.97;100443.19;4935577;29;20087;-69
2022/09/14 00:44:14;;;;;;;3.38;1.13;;;;;;;25.55;48.49;100440.81;4935664;29;20081;-69
2022/09/14 00:46:51;;;;;;;1.83;1.33;;;;;;;25.54;48.86;100437.25;4936773;29;20482;-69
2022/09/14 00:49:33;;;;;;;6.32;1.38;;;;;;;25.50;48.73;100430.53;4935644;29;20034;-69
2022/09/14 00:52:39;;;;;;;3.63;1.33;;;;;;;25.47;48.82;100420.03;4919976;29;20032;-69
2022/09/14 00:55:08;;;;;;;1.77;1.50;;;;;;;25.35;48.68;100416.41;4918750;29;20036;-69
2022/09/14 00:57:41;;;;;;;2.58;1.60;;;;;;;25.24;49.37;100426.28;4903033;29;20055;-70
2022/09/14 01:00:09;;;;;;;7.05;1.50;;;;;;;25.17;49.36;100427.47;4918900;29;20038;-69
2022/09/14 01:02:34;;;;;;;3.45;1.23;;;;;;;25.10;49.07;100424.00;4934699;29;20028;-69
2022/09/14 01:05:00;;;;;;;5.40;1.88;;;;;;;25.05;49.65;100432.06;4934486;29;20027;-69
2022/09/14 01:07:41;;;;;;;5.57;1.60;;;;;;;25.02;49.40;100432.53;4934299;29;20401;-69
2022/09/14 01:10:07;;;;;;;2.95;1.50;;;;;;;25.00;49.43;100437.41;4934471;29;20024;-69
2022/09/14 01:12:43;;;;;;;4.43;1.30;;;;;;;24.99;49.44;100430.25;4934368;29;20090;-69
2022/09/14 01:15:19;;;;;;;4.00;1.73;;;;;;;24.98;49.36;100434.06;4934246;29;20064;-68
2022/09/14 01:18:08;;;;;;;4.57;1.02;;;;;;;25.00;49.48;100429.19;4918799;29;20094;-68
2022/09/14 01:20:39;;;;;;;1.75;1.20;;;;;;;25.00;49.31;100432.78;4918479;29;20030;-69
2022/09/14 01:23:04;;;;;;;2.40;1.48;;;;;;;25.05;48.84;100432.06;4902637;29;20521;-69
2022/09/14 01:26:00;;;;;;;3.00;1.20;;;;;;;25.05;49.18;100432.06;4935152;29;20115;-69
2022/09/14 01:28:47;;;;;;;7.97;1.38;;;;;;;25.05;49.12;100432.06;4935084;29;20502;-68
2022/09/14 01:31:19;;;;;;;5.93;1.70;;;;;;;25.03;49.48;100439.69;4936653;29;20043;-69
2022/09/14 01:33:52;;;;;;;2.25;1.08;;;;;;;25.05;48.94;100434.81;4936349;29;20486;-69
2022/09/14 01:36:17;;;;;;;;;;;;;;;25.09;49.07;100438.75;4919495;29;20031;-69
2022/09/14 01:38:46;;;;;;;2.72;1.30;;;;;;;25.06;48.70;100434.59;4919496;29;20279;-68
2022/09/14 01:41:14;;;;;;;7.50;1.52;;;;;;;25.10;49.18;100429.47;4935131;29;20034;-69
2022/09/14 01:44:22;;;;;;;2.65;1.13;;;;;;;25.10;49.25;100434.97;4919097;29;20028;-69
2022/09/14 01:46:52;;;;;;;4.20;1.33;;;;;;;25.09;49.31;100428.63;4934501;29;20072;-69
2022/09/14 01:49:23;;;;;;;3.80;1.30;;;;;;;25.08;48.65;100424.22;4938492;29;20023;-69
2022/09/14 01:52:17;;;;;;;3.83;1.25;;;;;;;25.10;48.77;100433.03;4922644;29;20118;-69
2022/09/14 01:54:46;;;;;;;6.65;1.50;;;;;;;25.10;49.04;100445.94;4937643;29;20039;-68
2022/09/14 01:57:35;;;;;;;3.25;1.35;;;;;;;25.08;48.64;100453.53;4922817;29;20375;-68
2022/09/14 02:00:05;;;;;;;4.63;0.95;;;;;;;25.08;49.04;100465.34;4938763;29;20031;-69
2022/09/14 02:02:53;;;;;;;3.22;1.50;;;;;;;25.03;48.50;100464.34;4938766;29;20023;-69
2022/09/14 02:05:46;;;;;;;3.45;1.40;;;;;;;24.88;48.81;100460.13;4922452;29;20023;-69
2022/09/14 02:08:11;;;;;;;8.35;1.70;;;;;;;24.74;49.20;100453.13;4922059;29;20027;-69
2022/09/14 02:10:37;;;;;;;1.38;1.27;;;;;;;24.61;49.75;100453.28;4938065;29;20032;-68
2022/09/14 02:13:02;;;;;;;4.55;1.25;;;;;;;24.48;49.67;100439.78;4939021;29;20031;-69
2022/09/14 02:15:28;;;;;;;5.95;1.48;;;;;;;24.35;49.62;100434.44;4921744;29;20114;-69
2022/09/14 02:17:54;;;;;;;4.47;1.45;;;;;;;24.27;50.22;100440.22;4937747;29;20162;-68
2022/09/14 02:20:29;;;;;;;5.80;1.50;;;;;;;24.15;49.84;100431.06;4937732;29;20028;-70
2022/09/14 02:22:55;;;;;;;4.50;2.53;;;;;;;24.10;50.22;100430.91;4921750;29;20019;-69
2022/09/14 02:25:20;;;;;;;2.53;1.80;;;;;;;24.04;50.74;100432.63;4937448;29;20031;-69
2022/09/14 02:27:47;;;;;;;6.63;1.40;;;;;;;23.99;50.56;100427.00;4921582;29;20027;-68
2022/09/14 02:30:12;;;;;;;3.92;2.10;;;;;;;23.93;50.60;100425.16;4937396;29;20390;-68
2022/09/14 02:32:37;;;;;;;7.78;1.85;;;;;;;23.92;50.51;100425.41;4921360;29;20063;-68
2022/09/14 02:35:23;;;;;;;4.18;1.48;;;;;;;23.87;50.77;100419.78;4938412;29;20023;-68
2022/09/14 02:37:59;;;;;;;3.83;2.10;;;;;;;23.84;51.04;100422.97;4937469;29;20034;-68
2022/09/14 02:40:36;;;;;;;7.30;2.22;;;;;;;23.82;51.44;100408.66;4921301;29;20539;-68
2022/09/14 02:43:52;;;;;;;3.75;2.28;;;;;;;23.79;51.29;100404.47;4937155;29;20110;-69
2022/09/14 02:46:30;;;;;;;2.60;1.83;;;;;;;23.76;51.19;100400.28;4926418;29;20043;-68
2022/09/14 02:49:19;;;;;;;3.35;1.42;;;;;;;23.76;51.38;100394.81;4938438;29;20035;-68
2022/09/14 02:51:58;;;;;;;3.47;2.10;;;;;;;23.76;51.31;100383.03;4921246;29;20028;-69
2022/09/14 02:54:29;;;;;;;4.10;2.10;;;;;;;23.76;51.56;100383.88;4921085;29;20030;-70
2022/09/14 02:56:59;;;;;;;4.72;2.40;;;;;;;23.81;51.77;100391.44;4921145;29;20106;-69
2022/09/14 02:59:24;;;;;;;5.15;1.80;;;;;;;23.83;51.32;100383.81;4936004;29;20532;-68
2022/09/14 03:01:49;;;;;;;7.68;1.95;;;;;;;23.88;51.65;100383.13;4921013;29;20039;-68
2022/09/14 03:04:15;;;;;;;7.07;1.75;;;;;;;23.92;50.95;100377.00;4921082;29;20027;-69
2022/09/14 03:06:40;;;;;;;4.43;2.17;;;;;;;23.95;50.52;100376.56;4936913;29;20036;-68
2022/09/14 03:09:06;;;;;;;3.78;1.95;;;;;;;24.01;51.03;100380.28;4920979;29;20493;-68
2022/09/14 03:11:31;;;;;;;3.65;1.95;;;;;;;24.05;50.78;100386.94;4920909;29;20429;-68
2022/09/14 03:13:56;;;;;;;6.68;1.80;;;;;;;24.07;51.04;100384.81;4921097;29;20036;-69
2022/09/14 03:16:22;;;;;;;4.50;1.50;;;;;;;24.07;50.65;100374.72;4937258;29;20091;-68
2022/09/14 03:18:47;;;;;;;6.28;2.35;;;;;;;24.10;50.24;100379.75;4937974;29;20034;-70
2022/09/14 03:21:15;;;;;;;2.38;1.63;;;;;;;24.10;50.69;100373.44;4936743;29;20114;-69
2022/09/14 03:23:45;;;;;;;5.93;2.20;;;;;;;24.10;50.27;100374.28;4936944;29;20031;-69
2022/09/14 03:26:17;;;;;;;6.50;2.15;;;;;;;24.09;50.98;100358.06;4936674;29;20106;-68
2022/09/14 03:28:43;;;;;;;8.68;2.78;;;;;;;24.12;50.74;100363.94;4920967;29;20030;-69
2022/09/14 03:31:10;;;;;;;5.22;2.50;;;;;;;24.13;50.16;100364.78;4936349;29;20126;-68
2022/09/14 03:33:36;;;;;;;4.82;2.25;;;;;;;24.16;50.94;100364.31;4936570;29;20026;-69
2022/09/14 03:36:10;;;;;;;6.70;2.70;;;;;;;24.16;50.45;100354.22;4936642;29;20039;-69
2022/09/14 03:38:35;;;;;;;4.65;2.72;;;;;;;24.18;50.55;100359.44;4937742;29;20453;-68
2022/09/14 03:41:07;;;;;;;5.43;3.00;;;;;;;24.18;50.21;100349.34;4920684;29;20087;-68
2022/09/14 03:43:32;;;;;;;6.20;2.75;;;;;;;24.20;49.96;100357.34;4937785;29;20028;-70
2022/09/14 03:45:58;;;;;;;3.08;2.38;;;;;;;24.22;50.27;100355.19;4920647;29;20035;-68
2022/09/14 03:48:23;;;;;;;11.07;2.70;;;;;;;24.20;50.19;100346.38;4936199;29;20036;-67
2022/09/14 03:50:48;;;;;;;6.57;2.50;;;;;;;24.23;50.83;100351.41;4936402;29;20497;-69
2022/09/14 03:53:14;;;;;;;6.20;2.95;;;;;;;24.24;50.38;100353.06;4937552;29;20363;-68
2022/09/14 03:55:40;;;;;;;6.30;2.70;;;;;;;24.24;49.99;100344.84;4936580;29;20434;-68
2022/09/14 03:58:05;;;;;;;5.03;3.03;;;;;;;24.24;50.26;100336.63;4937613;29;20389;-69
2022/09/14 04:00:31;;;;;;;5.05;2.60;;;;;;;24.26;49.87;100345.47;4937664;29;20028;-68
2022/09/14 04:02:59;;;;;;;2.78;2.17;;;;;;;24.25;50.30;100338.31;4937459;29;20024;-68
2022/09/14 04:05:24;;;;;;;6.55;2.45;;;;;;;24.25;50.90;100347.38;4920271;29;20019;-68
2022/09/14 04:07:49;;;;;;;7.30;3.95;;;;;;;24.22;50.55;100327.81;4937140;29;20054;-68
2022/09/14 04:10:15;;;;;;;5.82;2.83;;;;;;;24.25;50.28;100335.56;4935653;29;20119;-68
2022/09/14 04:12:40;;;;;;;5.35;3.08;;;;;;;24.26;50.51;100335.34;4936027;29;20545;-68
2022/09/14 04:15:06;;;;;;;7.50;3.08;;;;;;;24.26;50.71;100334.53;4936981;29;20450;-69
2022/09/14 04:17:33;;;;;;;5.93;3.00;;;;;;;24.25;50.93;100330.09;4919956;29;20027;-69
2022/09/14 04:19:58;;;;;;;5.60;2.92;;;;;;;24.26;50.69;100340.00;4935870;29;20019;-69
2022/09/14 04:22:23;;;;;;;7.88;2.90;;;;;;;24.25;50.82;100333.69;4936876;29;20449;-69
2022/09/14 04:24:49;;;;;;;7.13;3.28;;;;;;;24.24;50.97;100328.41;4936863;29;20032;-69
2022/09/14 04:27:14;;;;;;;11.98;3.63;;;;;;;24.23;50.17;100334.97;4935752;29;20031;-69
2022/09/14 04:29:40;;;;;;;10.70;3.42;;;;;;;24.22;50.88;100336.03;4919632;29;20036;-69
2022/09/14 04:32:06;;;;;;;4.78;3.03;;;;;;;24.21;50.52;100331.63;4935305;29;20051;-68
2022/09/14 04:34:31;;;;;;;6.10;2.80;;;;;;;24.21;50.51;100337.09;4919810;29;20038;-69
2022/09/14 04:36:56;;;;;;;6.97;3.40;;;;;;;24.19;50.81;100337.34;4935531;29;20029;-69
2022/09/14 04:39:22;;;;;;;4.93;2.72;;;;;;;24.16;50.20;100337.78;4935519;29;20110;-68
2022/09/14 04:41:47;;;;;;;4.75;2.53;;;;;;;24.11;50.64;100334.06;4935517;29;20395;-69
2022/09/14 04:44:13;;;;;;;12.32;3.53;;;;;;;23.99;51.18;100338.59;4935222;29;20074;-67
2022/09/14 04:46:40;;;;;;;8.10;3.58;;;;;;;23.86;50.50;100336.88;4919451;29;20501;-68
2022/09/14 04:49:05;;;;;;;8.35;4.60;;;;;;;23.72;51.10;100338.91;4935100;29;20039;-69
2022/09/14 04:51:32;;;;;;;9.93;5.32;;;;;;;23.65;51.18;100345.50;4919570;29;20034;-69
2022/09/14 04:53:59;;;;;;;9.85;4.30;;;;;;;23.54;51.10;100338.88;4935047;29;20024;-69
2022/09/14 04:56:25;;;;;;;8.13;4.20;;;;;;;23.50;51.58;100340.41;4935066;29;20020;-68
2022/09/14 04:58:53;;;;;;;7.13;3.95;;;;;;;23.43;51.05;100342.34;4936202;29;20042;-68
2022/09/14 05:01:24;;;;;;;7.68;4.00;;;;;;;23.38;52.03;100333.13;4935065;29;20470;-68
2022/09/14 05:03:50;;;;;;;13.30;4.43;;;;;;;23.29;51.37;100332.56;4935053;29;20055;-68
2022/09/14 05:06:17;;;;;;;5.55;4.18;;;;;;;23.25;52.10;100341.44;4919139;29;20551;-68
2022/09/14 05:08:43;;;;;;;8.07;4.30;;;;;;;23.19;51.06;100337.69;4936112;29;20106;-68
2022/09/14 05:11:12;;;;;;;9.70;4.68;;;;;;;23.13;51.88;100333.97;4919374;29;20130;-70
2022/09/14 05:13:38;;;;;;;8.13;4.25;;;;;;;23.10;51.92;100333.56;4934890;29;20035;-68
2022/09/14 05:16:10;;;;;;;8.00;4.22;;;;;;;23.08;51.81;100338.44;4936024;29;20039;-68
2022/09/14 05:18:36;;;;;;;11.45;4.57;;;;;;;23.02;51.19;100342.03;4934849;29;20039;-67
2022/09/14 05:21:06;;;;;;;12.82;4.57;;;;;;;22.96;52.39;100337.47;4935143;29;20086;-67
2022/09/14 05:23:32;;;;;;;8.25;4.00;;;;;;;22.93;52.43;100338.75;4937438;29;20035;-65
2022/09/14 05:25:58;;;;;;;7.93;4.07;;;;;;;22.89;51.63;100345.69;4938845;29;20487;-66
2022/09/14 05:28:24;;;;;;;7.40;4.25;;;;;;;22.87;51.85;100349.69;4938718;29;20037;-66
2022/09/14 05:30:50;;;;;;;8.35;3.70;;;;;;;22.84;51.59;100361.06;4938467;29;20453;-65
2022/09/14 05:33:15;;;;;;;6.40;3.88;;;;;;;22.79;52.18;100348.09;4922514;29;20046;-66
2022/09/14 05:35:40;;;;;;;8.35;3.42;;;;;;;22.80;52.88;100348.94;4922570;29;20031;-66
2022/09/14 05:38:06;;;;;;;7.30;3.45;;;;;;;22.78;52.69;100340.13;4939067;29;20028;-67
2022/09/14 05:40:31;;;;;;;5.53;3.67;;;;;;;22.76;52.24;100336.75;4938718;29;20032;-66
2022/09/14 05:42:57;;;;;;;10.02;4.00;;;;;;;22.74;52.70;100327.94;4922586;29;20083;-66
2022/09/14 05:45:22;;;;;;;7.65;3.70;;;;;;;22.73;52.86;100329.00;4938547;29;20031;-67
2022/09/14 05:47:47;;;;;;;6.78;3.83;;;;;;;22.70;52.09;100315.81;4939426;29;20453;-66
2022/09/14 05:50:13;;;;;;;8.10;3.75;;;;;;;22.66;52.54;100314.56;4938173;29;20032;-66
2022/09/14 05:52:39;;;;;;;8.32;4.15;;;;;;;22.62;52.42;100312.25;4922760;29;20094;-67
2022/09/14 05:55:04;;;;;;;5.72;3.83;;;;;;;22.59;52.43;100323.59;4922901;29;20039;-65
2022/09/14 05:57:30;;;;;;;7.18;3.40;;;;;;;22.54;52.32;100315.25;4939509;29;20086;-67
2022/09/14 05:59:55;;;;;;;8.18;3.88;;;;;;;22.53;52.44;100327.19;4939675;29;20066;-66
2022/09/14 06:02:21;;;;;;;7.63;3.92;;;;;;;22.50;53.22;100321.38;4938061;29;20024;-67
2022/09/14 06:04:46;;;;;;;5.68;3.75;;;;;;;22.49;52.80;100320.53;4939314;29;20106;-66
2022/09/14 06:07:11;;;;;;;6.10;4.18;;;;;;;22.48;52.79;100321.56;4938072;29;20086;-66
2022/09/14 06:09:37;;;;;;;8.15;3.90;;;;;;;22.49;52.75;100325.13;4938203;29;20474;-66
2022/09/14 06:12:02;;;;;;;7.70;3.80;;;;;;;22.45;52.80;100319.28;4937960;29;20421;-67
2022/09/14 06:14:27;;;;;;;5.32;3.50;;;;;;;22.43;52.32;100315.94;4922012;29;20023;-65
2022/09/14 06:16:53;;;;;;;7.43;3.83;;;;;;;22.44;52.57;100323.06;4938094;29;20035;-66
2022/09/14 06:19:18;;;;;;;9.13;3.78;;;;;;;22.43;52.40;100318.66;4921871;29;20512;-69
2022/09/14 06:21:43;;;;;;;10.40;4.10;;;;;;;22.42;53.09;100314.25;4938823;29;20110;-68
2022/09/14 06:24:11;;;;;;;8.07;3.20;;;;;;;22.43;52.58;100309.63;4937977;29;20059;-67
2022/09/14 06:26:37;;;;;;;5.85;3.58;;;;;;;22.45;52.34;100308.34;4923993;29;20028;-68
2022/09/14 06:29:04;;;;;;;7.97;3.65;;;;;;;22.44;52.88;100303.97;4938321;29;20027;-67
2022/09/14 06:31:29;;;;;;;4.80;3.70;;;;;;;22.44;53.46;100301.25;4938990;29;20050;-69
2022/09/14 06:33:54;;;;;;;6.43;3.28;;;;;;;22.44;53.69;100298.50;4937137;29;20036;-69
2022/09/14 06:36:22;;;;;;;5.25;3.22;;;;;;;22.43;53.39;100290.53;4938685;29;20375;-67
2022/09/14 06:38:48;;;;;;;4.15;3.05;;;;;;;22.42;52.94;100300.59;4937479;29;20047;-68
2022/09/14 06:41:19;;;;;;;7.25;3.63;;;;;;;22.42;53.50;100303.31;4937356;29;20046;-67
2022/09/14 06:43:45;;;;;;;5.38;3.10;;;;;;;22.44;52.69;100301.25;4937250;29;20027;-68
2022/09/14 06:46:24;;;;;;;6.07;3.20;;;;;;;22.45;53.55;100297.44;4937317;29;20046;-68
2022/09/14 06:48:53;;;;;;;5.50;3.63;;;;;;;22.45;53.50;100288.41;4938355;29;20032;-68
2022/09/14 06:51:21;;;;;;;6.05;3.10;;;;;;;22.48;53.31;100302.47;4937062;29;20051;-68
2022/09/14 06:53:48;;;;;;;6.05;3.03;;;;;;;22.48;53.23;100291.53;4937030;29;20496;-67
2022/09/14 06:56:14;;;;;;;3.72;2.45;;;;;;;22.48;53.70;100297.00;4937256;29;20020;-67
2022/09/14 06:58:40;;;;;;;4.95;3.35;;;;;;;22.46;52.53;100293.66;4937034;29;20366;-68
2022/09/14 07:01:16;;;;;;;5.38;3.33;;;;;;;22.43;53.78;100298.72;4936991;29;20067;-68
2022/09/14 07:03:42;;;;;;;8.02;2.85;;;;;;;22.41;53.60;100285.28;4937010;29;20023;-68
2022/09/14 07:06:13;;;;;;;5.53;3.13;;;;;;;22.38;53.42;100291.19;4936857;29;20043;-68
2022/09/14 07:08:39;;;;;;;6.72;3.60;;;;;;;22.35;52.94;100286.16;4936763;29;20023;-68
2022/09/14 07:11:06;;;;;;;3.45;2.85;;;;;;;22.37;52.77;100294.97;4936703;29;20163;-68
2022/09/14 07:13:31;;;;;;;6.35;2.75;;;;;;;22.38;52.94;100301.28;4936649;29;20493;-67
2022/09/14 07:15:57;;;;;;;4.50;2.53;;;;;;;22.36;52.77;100298.75;4920831;29;20168;-68
2022/09/14 07:18:27;;;;;;;2.95;2.65;;;;;;;22.33;52.97;100298.38;4937786;29;20039;-69
2022/09/14 07:20:54;;;;;;;5.45;2.90;;;;;;;22.32;53.01;100307.59;4936733;29;20059;-68
2022/09/14 07:23:19;;;;;;;3.63;2.22;;;;;;;22.30;53.29;100316.00;4936606;29;20552;-68
2022/09/14 07:25:44;;;;;;;4.10;2.45;;;;;;;22.29;53.06;100306.16;4904893;29;20122;-69
2022/09/14 07:28:10;;;;;;;4.15;2.83;;;;;;;22.28;53.62;100307.19;4936402;29;20043;-67
2022/09/14 07:30:36;;;;;;;5.53;2.90;;;;;;;22.28;53.79;100307.19;4936530;29;20032;-67
2022/09/14 07:33:02;;;;;;;4.57;2.78;;;;;;;22.26;53.10;100298.38;4936202;29;20095;-67
2022/09/14 07:35:27;;;;;;;3.22;2.22;;;;;;;22.26;53.60;100298.38;4920476;29;20621;-67
2022/09/14 07:37:53;;;;;;;3.97;2.33;;;;;;;22.26;53.63;100309.31;4936295;29;20035;-66
2022/09/14 07:40:21;;;;;;;5.00;2.83;;;;;;;22.26;53.00;100309.31;4920280;29;20082;-67
2022/09/14 07:42:53;;;;;;;3.58;2.50;;;;;;;22.24;53.37;100311.41;4937291;29;20103;-68
2022/09/14 07:45:20;;;;;;;6.60;2.42;;;;;;;22.25;52.75;100313.06;4935530;29;20030;-67
2022/09/14 07:47:45;;;;;;;4.65;2.55;;;;;;;22.21;52.82;100300.94;4936221;29;20054;-69
2022/09/14 07:50:11;;;;;;;3.53;2.65;;;;;;;22.26;53.53;100312.03;4936086;29;20027;-68
2022/09/14 07:52:38;;;;;;;8.57;2.63;;;;;;;22.27;54.09;100321.91;4904392;29;20036;-68
2022/09/14 07:55:04;;;;;;;5.15;2.88;;;;;;;22.27;53.61;100330.09;4935899;29;20497;-68
2022/09/14 07:57:30;;;;;;;6.13;2.67;;;;;;;22.28;52.97;100328.22;4937375;29;20478;-68
2022/09/14 07:59:57;;;;;;;5.60;2.60;;;;;;;22.28;53.22;100322.75;4935792;29;20043;-68
2022/09/14 08:02:23;;;;;;;5.63;2.95;;;;;;;22.29;53.81;100314.31;4936981;29;20076;-70
2022/09/14 08:04:52;;;;;;;8.02;2.60;;;;;;;22.33;53.89;100321.03;4920027;29;20055;-68
2022/09/14 08:07:18;;;;;;;5.93;2.60;;;;;;;22.35;53.28;100305.28;4937033;29;20509;-68
2022/09/14 08:09:44;;;;;;;5.45;2.88;;;;;;;22.35;52.86;100297.09;4937035;29;20032;-68
2022/09/14 08:12:09;;;;;;;6.63;3.03;;;;;;;22.37;53.79;100305.88;4936801;29;20054;-68
2022/09/14 08:14:35;;;;;;;8.15;3.22;;;;;;;22.40;53.87;100302.72;4935671;29;20038;-68
2022/09/14 08:17:01;;;;;;;7.13;2.80;;;;;;;22.42;53.25;100294.28;4936791;29;20393;-69
2022/09/14 08:19:26;;;;;;;9.18;3.38;;;;;;;22.40;53.23;100294.53;4935454;29;20078;-68
2022/09/14 08:21:52;;;;;;;4.63;3.00;;;;;;;22.42;53.49;100299.75;4936654;29;20034;-68
2022/09/14 08:24:19;;;;;;;6.97;3.72;;;;;;;22.41;52.96;100307.13;4936655;29;20112;-68
2022/09/14 08:26:45;;;;;;;6.60;4.03;;;;;;;22.43;53.70;100310.47;4935481;29;20549;-68
2022/09/14 08:29:16;;;;;;;3.75;3.25;;;;;;;22.44;53.63;100306.69;4935311;29;20071;-68
2022/09/14 08:31:43;;;;;;;10.75;3.75;;;;;;;22.46;53.31;100309.19;4919303;29;20442;-68
2022/09/14 08:34:08;;;;;;;6.70;4.15;;;;;;;22.49;53.82;100309.59;4936476;29;20087;-68
2022/09/14 08:36:36;;;;;;;9.90;4.18;;;;;;;22.49;52.77;100309.59;4919452;29;20031;-68
2022/09/14 08:39:02;;;;;;;4.47;3.65;;;;;;;22.51;53.45;100307.47;4919675;29;20040;-69
2022/09/14 08:41:36;;;;;;;5.00;3.47;;;;;;;22.49;53.38;100306.88;4935317;29;20023;-68
2022/09/14 08:44:21;;;;;;;5.20;3.58;;;;;;;22.53;53.39;100308.09;4936375;29;20027;-68
2022/09/14 08:46:50;;;;;;;6.40;3.85;;;;;;;22.55;52.76;100314.19;4935135;29;20051;-68
2022/09/14 08:49:37;;;;;;;6.40;4.22;;;;;;;22.54;53.44;100317.13;4935130;29;20028;-67
2022/09/14 08:52:03;;;;;;;7.25;3.83;;;;;;;22.59;53.58;100315.41;4935265;29;20027;-68
2022/09/14 08:54:30;;;;;;;4.50;3.90;;;;;;;22.63;53.79;100321.28;4935088;29;20478;-68
2022/09/14 08:57:17;;;;;;;10.15;4.00;;;;;;;22.69;52.75;100319.59;4936400;29;20038;-68
2022/09/14 09:00:12;;;;;;;5.38;3.80;;;;;;;22.75;52.60;100319.56;4935163;29;20075;-68
2022/09/14 09:02:53;;;;;;;3.50;3.20;;;;;;;22.82;53.64;100330.41;4935285;29;20032;-68
2022/09/14 09:05:33;;;;;;;5.32;3.78;;;;;;;22.86;52.39;100332.50;4935045;29;20020;-68
2022/09/14 09:08:17;;;;;;;7.90;3.85;;;;;;;22.93;52.97;100326.97;4936179;29;20036;-68
2022/09/14 09:10:43;;;;;;;5.22;3.58;;;;;;;23.01;53.23;100329.44;4934968;29;20032;-69
2022/09/14 09:13:17;;;;;;;4.82;3.72;;;;;;;23.04;52.95;100328.97;4936156;29;20062;-69
2022/09/14 09:15:52;;;;;;;4.78;3.53;;;;;;;23.07;52.25;100326.66;4919236;29;20079;-69
2022/09/14 09:18:33;;;;;;;5.88;3.50;;;;;;;23.07;52.40;100323.06;4934990;29;20124;-68
2022/09/14 09:21:20;;;;;;;7.55;3.58;;;;;;;23.14;53.05;100312.94;4934980;29;20031;-70
2022/09/14 09:23:45;;;;;;;5.15;3.20;;;;;;;23.16;52.46;100298.00;4934854;29;20042;-68
2022/09/14 09:26:24;;;;;;;4.88;3.50;;;;;;;23.19;51.98;100310.38;4934871;29;20100;-68
2022/09/14 09:28:51;;;;;;;8.52;3.75;;;;;;;23.20;51.79;100329.25;4919274;29;20503;-68
2022/09/14 09:31:19;;;;;;;4.40;3.60;;;;;;;23.22;52.70;100330.94;4934783;29;20384;-68
2022/09/14 09:33:48;;;;;;;7.20;3.60;;;;;;;23.26;51.88;100329.44;4934764;29;20110;-68
2022/09/14 09:36:14;;;;;;;6.75;4.15;;;;;;;23.26;52.12;100322.06;4934785;29;20111;-68
2022/09/14 09:38:40;;;;;;;5.85;3.83;;;;;;;23.33;52.79;100322.03;4918988;29;20024;-69
2022/09/14 09:41:11;;;;;;;6.10;3.35;;;;;;;23.35;51.73;100315.25;4934836;29;20034;-68
2022/09/14 09:43:55;;;;;;;7.57;3.60;;;;;;;23.39;51.86;100310.22;4935986;29;20063;-68
2022/09/14 09:46:21;;;;;;;4.22;3.10;;;;;;;23.40;52.68;100315.44;4935902;29;20059;-68
2022/09/14 09:48:47;;;;;;;5.05;3.58;;;;;;;23.39;52.19;100313.81;4934929;29;20450;-68
2022/09/14 09:51:25;;;;;;;6.43;3.83;;;;;;;23.39;53.07;100322.00;4934807;29;20107;-69
2022/09/14 09:54:11;;;;;;;5.53;3.60;;;;;;;23.41;52.90;100325.34;4934635;29;20031;-70
2022/09/14 09:56:58;;;;;;;5.63;3.60;;;;;;;23.39;52.45;100322.00;4935310;29;20494;-68
2022/09/14 09:59:31;;;;;;;5.20;3.40;;;;;;;23.41;52.90;100308.94;4935560;29;20049;-68
2022/09/14 10:02:19;;;;;;;5.30;3.13;;;;;;;23.39;52.54;100307.50;4934966;29;20028;-68
2022/09/14 10:05:00;;;;;;;6.72;3.70;;;;;;;23.33;52.05;100301.00;4918533;29;20024;-68
2022/09/14 10:07:26;;;;;;;5.20;3.35;;;;;;;23.25;53.03;100293.09;4935582;29;20047;-68
2022/09/14 10:10:10;;;;;;;4.82;3.85;;;;;;;23.18;53.20;100286.81;4937101;29;20038;-67
2022/09/14 10:12:38;;;;;;;6.32;3.72;;;;;;;23.12;53.31;100288.56;4921965;29;20375;-69
2022/09/14 10:15:07;;;;;;;4.60;4.00;;;;;;;23.10;53.42;100287.94;4937720;29;20513;-69
2022/09/14 10:17:32;;;;;;;5.55;4.13;;;;;;;23.05;52.49;100286.94;4938971;29;20028;-68
2022/09/14 10:19:58;;;;;;;6.00;3.97;;;;;;;23.04;53.16;100286.09;4921945;29;20032;-68
2022/09/14 10:22:30;;;;;;;5.50;3.50;;;;;;;23.06;53.56;100294.09;4921765;29;20494;-68
2022/09/14 10:24:57;;;;;;;7.38;3.97;;;;;;;23.04;52.84;100285.28;4937785;29;20024;-67
2022/09/14 10:27:35;;;;;;;7.95;4.15;;;;;;;23.04;52.62;100282.53;4921657;29;20042;-67
2022/09/14 10:30:03;;;;;;;4.97;3.13;;;;;;;23.04;53.56;100286.09;4938924;29;20174;-67
2022/09/14 10:32:29;;;;;;;4.00;3.58;;;;;;;23.05;52.99;100290.53;4937418;29;20044;-68
2022/09/14 10:34:55;;;;;;;6.07;3.72;;;;;;;23.07;52.74;100295.75;4921564;29;20039;-69
2022/09/14 10:37:30;;;;;;;4.88;2.88;;;;;;;23.08;52.98;100297.44;4921802;29;20043;-68
2022/09/14 10:40:11;;;;;;;3.63;3.13;;;;;;;23.10;53.57;100284.38;4937461;29;20020;-69
2022/09/14 10:42:41;;;;;;;6.80;3.53;;;;;;;23.10;52.60;100287.09;4938603;29;20552;-68
2022/09/14 10:45:13;;;;;;;6.20;3.58;;;;;;;23.12;53.44;100282.25;4937377;29;20020;-68
2022/09/14 10:47:41;;;;;;;7.03;3.70;;;;;;;23.13;53.69;100294.88;4937334;29;20035;-67
2022/09/14 10:50:32;;;;;;;6.82;3.60;;;;;;;23.14;53.52;100302.00;4938416;29;20389;-68
2022/09/14 10:53:16;;;;;;;4.22;3.13;;;;;;;23.14;52.60;100302.00;4937276;29;20046;-68
2022/09/14 10:56:02;;;;;;;7.65;3.45;;;;;;;23.16;53.38;100299.88;4938264;29;20024;-68
2022/09/14 10:58:27;;;;;;;5.30;3.38;;;;;;;23.21;53.37;100300.03;4937203;29;20028;-68
2022/09/14 11:01:11;;;;;;;4.72;3.83;;;;;;;23.22;53.44;100296.25;4937039;29;20032;-69
2022/09/14 11:03:58;;;;;;;5.20;3.53;;;;;;;23.24;53.41;100301.50;4938216;29;20056;-68
2022/09/14 11:06:44;;;;;;;6.95;3.58;;;;;;;23.25;53.37;100290.34;4938197;29;20063;-70
2022/09/14 11:09:20;;;;;;;6.03;3.70;;;;;;;23.26;52.35;100289.25;4936913;29;20024;-68
2022/09/14 11:11:55;;;;;;;6.22;2.58;;;;;;;23.29;53.21;100283.34;4938148;29;20028;-69
2022/09/14 11:14:31;;;;;;;5.55;2.88;;;;;;;23.30;52.35;100271.38;4920855;29;20489;-68
2022/09/14 11:17:18;;;;;;;4.75;2.50;;;;;;;23.32;53.37;100271.97;4936618;29;20035;-69
2022/09/14 11:20:02;;;;;;;6.85;3.47;;;;;;;23.31;52.32;100275.75;4937195;29;20486;-68
2022/09/14 11:22:40;;;;;;;4.70;2.90;;;;;;;23.28;52.56;100275.41;4937762;29;20083;-67
2022/09/14 11:25:19;;;;;;;7.25;2.78;;;;;;;23.25;52.65;100282.16;4937719;29;20507;-68
2022/09/14 11:27:54;;;;;;;5.47;2.80;;;;;;;23.20;52.42;100279.22;4936461;29;20019;-69
2022/09/14 11:30:21;;;;;;;3.30;1.90;;;;;;;23.15;53.09;100276.34;4936529;29;20035;-68
2022/09/14 11:33:10;;;;;;;4.00;2.13;;;;;;;23.14;52.86;100280.16;4936243;29;20052;-68
2022/09/14 11:35:44;;;;;;;3.42;1.30;;;;;;;23.12;52.21;100277.63;4936367;29;20027;-68
2022/09/14 11:38:15;;;;;;;2.55;1.63;;;;;;;23.16;51.92;100278.03;4920405;29;20417;-68